Time;durP1;ratioP1;P1;durP2;ratioP2;P2;SDS_P1;SDS_P2;PMS_P1;PMS_P2;Temp;Humidity;BMP_temperature;BMP_pressure;BME280_temperature;BME280_humidity;BME280_pressure;Samples;Min_cycle;Max_cycle;Signal;HPM_P1;HPM_P2
2022/10/26 00:00:08;;;;;;;6.40;2.70;;;;;;;12.92;87.94;100775.97;2081531;28;20041;-70
2022/10/26 00:01:22;;;;;;;11.63;2.30;;;;;;;12.91;88.24;100779.75;2082859;28;20050;-71
2022/10/26 00:02:29;;;;;;;6.90;2.40;;;;;;;12.91;88.13;100780.56;2081966;28;20049;-71
2022/10/26 00:03:34;;;;;;;10.68;3.00;;;;;;;12.92;87.84;100775.97;2072853;28;20050;-70
2022/10/26 00:04:43;;;;;;;5.53;2.47;;;;;;;12.89;87.95;100771.97;2082290;28;20532;-70
2022/10/26 00:05:48;;;;;;;8.00;2.88;;;;;;;12.90;87.92;100772.75;2073352;28;20041;-71
2022/10/26 00:06:53;;;;;;;8.45;2.50;;;;;;;12.92;88.09;100781.34;2073961;28;20545;-70
2022/10/26 00:08:04;;;;;;;5.25;2.10;;;;;;;12.93;87.98;100777.59;2082476;28;20049;-71
2022/10/26 00:09:16;;;;;;;9.35;2.35;;;;;;;12.94;88.23;100779.19;2082545;28;20049;-70
2022/10/26 00:10:24;;;;;;;5.60;2.30;;;;;;;12.94;88.03;100776.47;2080642;28;20038;-70
2022/10/26 00:11:29;;;;;;;6.45;2.30;;;;;;;12.94;87.87;100781.88;2073877;28;20069;-71
2022/10/26 00:12:32;;;;;;;6.63;2.45;;;;;;;12.92;87.77;100781.34;2081172;28;20048;-70
2022/10/26 00:13:44;;;;;;;5.13;2.60;;;;;;;12.94;87.87;100784.59;2081461;28;20053;-70
2022/10/26 00:14:49;;;;;;;9.02;2.72;;;;;;;12.96;88.10;100779.72;2080724;28;20589;-70
2022/10/26 00:15:57;;;;;;;10.70;2.33;;;;;;;12.95;87.74;100788.88;2073915;28;20045;-70
2022/10/26 00:17:00;;;;;;;5.57;2.40;;;;;;;12.92;87.88;100782.16;2073781;28;20060;-70
2022/10/26 00:18:02;;;;;;;6.75;2.78;;;;;;;12.92;87.84;100792.16;2073134;28;20042;-70
2022/10/26 00:19:10;;;;;;;7.95;2.58;;;;;;;12.92;87.64;100784.06;2081136;28;20421;-70
2022/10/26 00:20:14;;;;;;;11.85;3.20;;;;;;;12.92;87.79;100786.75;2077232;28;20041;-69
2022/10/26 00:21:21;;;;;;;11.43;2.70;;;;;;;12.93;87.90;100788.38;2064087;28;20065;-70
2022/10/26 00:22:24;;;;;;;8.32;2.42;;;;;;;12.94;87.85;100785.38;2072632;28;20046;-71
2022/10/26 00:23:27;;;;;;;7.47;2.83;;;;;;;12.95;87.65;100780.78;2064623;28;20054;-70
2022/10/26 00:24:34;;;;;;;5.32;2.50;;;;;;;12.94;87.63;100779.97;2064829;28;20158;-70
2022/10/26 00:25:44;;;;;;;7.32;2.50;;;;;;;12.95;87.83;100775.38;2066718;28;20054;-70
2022/10/26 00:26:51;;;;;;;5.00;2.47;;;;;;;12.98;88.02;100785.59;2072698;28;20054;-70
2022/10/26 00:28:01;;;;;;;7.80;2.80;;;;;;;12.96;87.43;100788.59;2065143;28;20046;-70
2022/10/26 00:29:12;;;;;;;5.53;2.53;;;;;;;12.94;87.54;100790.78;2059302;28;20530;-70
2022/10/26 00:30:17;;;;;;;6.40;2.55;;;;;;;12.94;87.46;100784.59;2067513;28;20046;-71
2022/10/26 00:31:25;;;;;;;8.25;2.72;;;;;;;12.95;87.62;100786.19;2073790;28;20112;-71
2022/10/26 00:32:30;;;;;;;7.57;2.38;;;;;;;12.95;87.58;100788.88;2065368;28;20054;-70
2022/10/26 00:33:36;;;;;;;8.50;2.58;;;;;;;12.94;87.55;100787.28;2073730;28;20049;-71
2022/10/26 00:34:38;;;;;;;8.68;2.30;;;;;;;12.95;87.74;100786.19;2074041;28;20497;-70
2022/10/26 00:35:54;;;;;;;5.10;2.40;;;;;;;12.97;87.68;100790.19;2072761;28;20054;-70
2022/10/26 00:37:03;;;;;;;5.88;2.38;;;;;;;13.01;87.66;100789.63;2073533;28;20556;-70
2022/10/26 00:38:11;;;;;;;11.25;2.53;;;;;;;13.02;87.91;100792.06;2067139;28;20054;-71
2022/10/26 00:39:13;;;;;;;3.85;2.13;;;;;;;13.02;87.69;100791.22;2066565;28;20038;-71
2022/10/26 00:40:20;;;;;;;6.50;2.53;;;;;;;13.01;87.25;100793.13;2066743;28;20046;-71
2022/10/26 00:41:32;;;;;;;7.78;2.40;;;;;;;13.00;87.31;100799.63;2066656;28;20041;-71
2022/10/26 00:42:43;;;;;;;6.15;2.30;;;;;;;13.02;87.51;100796.63;2067014;28;20054;-71
2022/10/26 00:43:47;;;;;;;7.20;2.53;;;;;;;13.04;87.46;100794.44;2066269;28;20046;-71
2022/10/26 00:45:00;;;;;;;7.20;2.28;;;;;;;13.04;87.50;100794.44;2065006;28;20042;-71
2022/10/26 00:46:17;;;;;;;9.13;3.13;;;;;;;13.03;87.16;100793.66;2060115;28;20554;-71
2022/10/26 00:47:46;;;;;;;8.85;2.50;;;;;;;13.01;87.43;100798.53;2070757;28;20050;-70
2022/10/26 00:49:03;;;;;;;11.32;2.35;;;;;;;13.03;87.14;100803.66;2072155;28;20046;-70
2022/10/26 00:50:21;;;;;;;8.82;2.65;;;;;;;13.05;87.24;100798.75;2073657;28;20045;-70
2022/10/26 00:51:50;;;;;;;6.47;2.17;;;;;;;13.05;87.27;100796.88;2072826;28;20045;-70
2022/10/26 00:53:04;;;;;;;10.15;2.35;;;;;;;13.07;87.02;100799.28;2067536;28;20117;-71
2022/10/26 00:54:13;;;;;;;10.38;2.60;;;;;;;13.08;87.23;100807.09;2066231;28;20548;-71
2022/10/26 00:55:20;;;;;;;10.27;2.40;;;;;;;13.07;86.81;100800.06;2065845;28;20543;-70
2022/10/26 00:56:31;;;;;;;8.75;2.42;;;;;;;13.06;86.70;100803.88;2057083;28;20298;-70
2022/10/26 00:57:39;;;;;;;9.50;2.75;;;;;;;13.04;86.81;100803.34;2066417;28;20038;-70
2022/10/26 00:58:48;;;;;;;6.55;2.60;;;;;;;13.05;87.06;100801.44;2073189;28;20485;-70
2022/10/26 00:59:59;;;;;;;6.55;2.63;;;;;;;13.06;86.82;100803.88;2065359;28;20533;-69
2022/10/26 01:01:13;;;;;;;5.68;2.47;;;;;;;13.05;86.68;100804.97;2067739;28;20041;-71
2022/10/26 01:02:18;;;;;;;9.48;2.92;;;;;;;13.02;86.97;100799.31;2074138;28;20386;-71
2022/10/26 01:03:26;;;;;;;8.25;2.78;;;;;;;13.00;86.62;100802.31;2057899;28;20043;-70
2022/10/26 01:04:35;;;;;;;9.32;2.53;;;;;;;12.96;86.79;100810.19;2052317;28;20051;-70
2022/10/26 01:05:42;;;;;;;5.95;2.38;;;;;;;12.90;86.76;100811.34;2063855;28;20073;-70
2022/10/26 01:06:54;;;;;;;8.52;2.50;;;;;;;12.88;87.02;100807.31;2080686;28;20037;-71
2022/10/26 01:08:00;;;;;;;9.48;2.55;;;;;;;12.90;87.14;100807.84;2081565;28;20045;-71
2022/10/26 01:09:12;;;;;;;14.95;2.60;;;;;;;12.92;87.31;100808.34;2074113;28;20053;-70
2022/10/26 01:10:18;;;;;;;10.30;2.92;;;;;;;12.97;87.50;100805.59;2081780;28;20045;-71
2022/10/26 01:11:23;;;;;;;7.18;2.60;;;;;;;12.95;87.39;100807.78;2082404;28;20045;-71
2022/10/26 01:12:30;;;;;;;14.23;2.53;;;;;;;12.94;87.24;100811.56;2080346;28;20041;-71
2022/10/26 01:13:41;;;;;;;7.22;2.72;;;;;;;12.95;87.41;100813.97;2073367;28;20054;-71
2022/10/26 01:14:49;;;;;;;10.65;2.67;;;;;;;12.98;87.38;100812.59;2075184;28;20049;-71
2022/10/26 01:16:08;;;;;;;6.68;2.72;;;;;;;13.01;87.56;100809.31;2072376;28;20720;-71
2022/10/26 01:17:22;;;;;;;13.00;2.50;;;;;;;13.07;87.67;100815.47;2075188;28;20042;-71
2022/10/26 01:18:44;;;;;;;7.60;2.60;;;;;;;13.07;87.34;100810.88;2080658;28;20680;-71
2022/10/26 01:20:15;;;;;;;7.15;2.53;;;;;;;13.08;87.43;100812.50;2080957;28;20481;-71
2022/10/26 01:21:44;;;;;;;5.50;2.40;;;;;;;13.12;87.28;100818.91;2071003;28;20057;-71
2022/10/26 01:23:09;;;;;;;4.93;2.00;;;;;;;13.12;87.32;100818.13;2071706;28;20497;-70
2022/10/26 01:24:31;;;;;;;11.43;3.30;;;;;;;13.09;87.17;100806.00;2075255;28;20053;-70
2022/10/26 01:26:26;;;;;;;8.10;2.78;;;;;;;13.07;86.99;100816.25;2080862;28;20052;-71
2022/10/26 01:27:37;;;;;;;11.27;3.42;;;;;;;13.10;87.14;100815.69;2072363;28;20045;-70
2022/10/26 01:29:04;;;;;;;9.82;2.35;;;;;;;13.10;86.92;100810.28;2073528;28;20089;-70
2022/10/26 01:30:34;;;;;;;6.53;2.65;;;;;;;13.06;86.74;100805.78;2076595;28;20076;-71
2022/10/26 01:31:56;;;;;;;5.28;2.30;;;;;;;13.07;87.21;100810.88;2064081;28;20042;-71
2022/10/26 01:33:19;;;;;;;6.97;2.67;;;;;;;13.09;87.59;100811.38;2062557;28;20402;-71
2022/10/26 01:34:36;;;;;;;8.77;3.05;;;;;;;13.09;87.27;100813.28;2075576;28;20049;-72
2022/10/26 01:36:08;;;;;;;8.00;2.60;;;;;;;13.08;87.41;100807.09;2077115;28;20048;-71
2022/10/26 01:37:30;;;;;;;8.38;2.42;;;;;;;13.11;87.56;100805.69;2073721;28;20054;-71
2022/10/26 01:38:44;;;;;;;6.60;2.67;;;;;;;13.06;87.68;100809.25;2064395;28;20467;-72
2022/10/26 01:40:15;;;;;;;6.63;2.67;;;;;;;13.02;87.32;100810.94;2067528;28;20058;-71
2022/10/26 01:41:47;;;;;;;9.90;2.92;;;;;;;12.98;87.41;100807.19;2075678;28;20125;-71
2022/10/26 01:42:53;;;;;;;7.85;2.42;;;;;;;12.97;87.58;100805.59;2073343;28;20046;-71
2022/10/26 01:44:27;;;;;;;8.38;2.85;;;;;;;12.95;87.89;100813.16;2074053;28;20042;-71
2022/10/26 01:45:35;;;;;;;8.30;2.85;;;;;;;12.94;87.86;100812.38;2073807;28;20406;-71
2022/10/26 01:46:47;;;;;;;9.80;2.90;;;;;;;12.92;87.76;100811.84;2073507;28;20050;-72
2022/10/26 01:47:53;;;;;;;7.88;2.80;;;;;;;12.92;87.98;100802.94;2055466;28;20043;-72
2022/10/26 01:49:07;;;;;;;8.00;2.60;;;;;;;12.90;88.07;100805.94;2057029;28;20046;-70
2022/10/26 01:50:13;;;;;;;5.97;2.60;;;;;;;12.91;88.22;100806.75;2070798;28;20041;-71
2022/10/26 01:51:17;;;;;;;9.15;2.92;;;;;;;12.91;88.21;100810.25;2070576;28;20060;-70
2022/10/26 01:52:27;;;;;;;8.43;2.65;;;;;;;12.87;87.79;100811.91;2064086;28;20041;-71
2022/10/26 01:53:34;;;;;;;7.45;2.95;;;;;;;12.85;87.88;100814.09;2058158;28;20046;-70
2022/10/26 01:54:41;;;;;;;8.20;2.80;;;;;;;12.84;87.85;100806.28;2072304;28;20046;-69
2022/10/26 01:55:52;;;;;;;;;;;;;;;12.82;88.00;100809.25;2072300;28;20060;-69
2022/10/26 01:57:03;;;;;;;7.75;2.60;;;;;;;12.79;88.24;100809.84;2065861;28;19917;-70
2022/10/26 01:58:24;;;;;;;7.63;2.92;;;;;;;12.78;88.27;100807.44;2065579;28;20054;-71
2022/10/26 02:00:11;;;;;;;10.15;2.83;;;;;;;12.73;88.03;100809.09;2067434;28;20402;-70
2022/10/26 02:01:37;;;;;;;7.28;2.70;;;;;;;12.67;88.25;100802.16;2061553;28;20037;-71
2022/10/26 02:03:09;;;;;;;10.65;2.55;;;;;;;12.69;88.13;100805.34;2067664;28;20053;-71
2022/10/26 02:04:30;;;;;;;8.05;2.50;;;;;;;12.64;88.19;100802.72;2052229;28;20419;-69
2022/10/26 02:05:34;;;;;;;;;;;;;;;12.62;88.37;100809.50;2048038;28;20042;-69
2022/10/26 02:07:02;;;;;;;10.15;2.47;;;;;;;12.59;88.65;100805.47;2058007;28;19925;-69
2022/10/26 02:08:08;;;;;;;7.88;2.85;;;;;;;12.56;88.73;100800.66;2072572;28;20513;-70
2022/10/26 02:09:18;;;;;;;9.13;2.70;;;;;;;12.53;88.74;100804.72;2073146;28;20042;-69
2022/10/26 02:10:41;;;;;;;8.68;2.70;;;;;;;12.48;88.82;100802.09;2075212;28;20053;-70
2022/10/26 02:11:52;;;;;;;7.05;2.90;;;;;;;12.49;89.08;100805.59;2072008;28;20045;-69
2022/10/26 02:13:09;;;;;;;11.82;3.08;;;;;;;12.48;89.07;100803.97;2073157;28;20050;-68
2022/10/26 02:14:29;;;;;;;9.45;3.10;;;;;;;12.49;89.32;100805.59;2073104;28;20045;-69
2022/10/26 02:15:56;;;;;;;5.88;2.58;;;;;;;12.49;89.38;100810.97;2067752;28;20057;-69
2022/10/26 02:17:01;;;;;;;8.38;2.90;;;;;;;12.50;89.21;100817.97;2067957;28;20387;-70
2022/10/26 02:18:26;;;;;;;9.40;2.90;;;;;;;12.53;89.45;100810.13;2065524;28;20054;-69
2022/10/26 02:19:44;;;;;;;8.57;2.63;;;;;;;12.58;89.65;100809.28;2072717;28;20057;-69
2022/10/26 02:20:52;;;;;;;8.88;2.45;;;;;;;12.64;89.77;100812.69;2080878;28;20057;-70
2022/10/26 02:22:06;;;;;;;13.77;3.05;;;;;;;12.68;89.64;100816.44;2065281;28;20046;-70
2022/10/26 02:23:15;;;;;;;8.32;2.70;;;;;;;12.70;89.59;100801.59;2067084;28;20046;-71
2022/10/26 02:24:19;;;;;;;5.43;2.88;;;;;;;12.73;89.66;100811.78;2073724;28;20057;-70
2022/10/26 02:25:30;;;;;;;11.88;3.20;;;;;;;12.75;89.54;100808.81;2074336;28;20067;-70
2022/10/26 02:26:38;;;;;;;11.23;2.97;;;;;;;12.75;89.20;100808.81;2071299;28;20050;-70
2022/10/26 02:27:46;;;;;;;10.75;2.92;;;;;;;12.76;89.24;100802.31;2073855;28;20059;-70
2022/10/26 02:28:56;;;;;;;9.55;2.83;;;;;;;12.73;89.17;100811.78;2066639;28;20034;-70
2022/10/26 02:30:05;;;;;;;10.40;2.70;;;;;;;12.63;89.09;100811.91;2066383;28;20387;-70
2022/10/26 02:31:15;;;;;;;9.90;2.78;;;;;;;12.60;89.04;100807.06;2073707;28;20053;-70
2022/10/26 02:32:26;;;;;;;11.80;2.83;;;;;;;12.57;89.02;100812.25;2073742;28;20045;-69
2022/10/26 02:33:40;;;;;;;12.50;3.58;;;;;;;12.56;89.29;100816.84;2074533;28;20062;-70
2022/10/26 02:34:48;;;;;;;6.45;2.67;;;;;;;12.59;89.18;100816.25;2067100;28;20050;-71
2022/10/26 02:36:00;;;;;;;8.43;2.70;;;;;;;12.62;89.45;100814.91;2073981;28;20061;-71
2022/10/26 02:37:10;;;;;;;11.73;3.10;;;;;;;12.61;89.19;100813.28;2074410;28;20121;-70
2022/10/26 02:38:14;;;;;;;14.60;3.20;;;;;;;12.61;89.39;100815.97;2074754;28;20038;-71
2022/10/26 02:39:26;;;;;;;9.45;3.17;;;;;;;12.62;89.64;100818.41;2066747;28;20038;-71
2022/10/26 02:40:34;;;;;;;9.85;3.03;;;;;;;12.64;89.66;100813.53;2067525;28;20050;-71
2022/10/26 02:41:41;;;;;;;6.68;2.80;;;;;;;12.66;89.70;100816.72;2066723;28;20375;-71
2022/10/26 02:42:49;;;;;;;11.48;2.83;;;;;;;12.70;89.54;100820.47;2067538;28;20038;-70
2022/10/26 02:44:11;;;;;;;6.72;2.65;;;;;;;12.75;89.62;100825.81;2065506;28;20470;-71
2022/10/26 02:45:28;;;;;;;12.98;2.60;;;;;;;12.81;89.73;100814.97;2063245;28;20546;-71
2022/10/26 02:46:38;;;;;;;5.90;2.85;;;;;;;12.85;89.78;100824.09;2069066;28;20046;-70
2022/10/26 02:47:47;;;;;;;11.00;3.42;;;;;;;12.88;89.23;100828.91;2073685;28;20430;-70
2022/10/26 02:49:03;;;;;;;7.65;2.45;;;;;;;12.91;89.36;100828.34;2072899;28;20132;-71
2022/10/26 02:50:09;;;;;;;8.50;2.70;;;;;;;12.94;89.17;100825.06;2066560;28;20046;-71
2022/10/26 02:51:27;;;;;;;9.02;3.25;;;;;;;12.97;88.86;100824.50;2059203;28;20142;-71
2022/10/26 02:52:55;;;;;;;10.45;4.20;;;;;;;12.98;89.09;100831.47;2063985;28;20049;-70
2022/10/26 02:54:17;;;;;;;6.65;2.58;;;;;;;13.02;89.02;100829.00;2073447;28;20046;-70
2022/10/26 02:55:32;;;;;;;7.53;3.05;;;;;;;13.05;88.84;100831.13;2072290;28;20041;-71
2022/10/26 02:56:57;;;;;;;5.03;3.08;;;;;;;12.99;88.45;100833.13;2073913;28;20049;-71
2022/10/26 02:58:11;;;;;;;6.28;2.97;;;;;;;13.00;88.34;100834.72;2063750;28;20042;-71
2022/10/26 02:59:18;;;;;;;8.00;2.63;;;;;;;13.02;88.21;100829.84;2058731;28;20058;-70
2022/10/26 03:00:24;;;;;;;6.95;3.03;;;;;;;13.01;88.17;100825.50;2052007;28;20526;-71
2022/10/26 03:01:30;;;;;;;5.28;2.42;;;;;;;13.02;88.23;100827.13;2066323;28;20529;-70
2022/10/26 03:02:36;;;;;;;11.73;2.83;;;;;;;12.96;88.08;100829.09;2072332;28;20415;-70
2022/10/26 03:03:44;;;;;;;12.18;3.45;;;;;;;12.95;87.92;100834.75;2065933;28;20061;-69
2022/10/26 03:04:55;;;;;;;8.10;3.35;;;;;;;12.96;88.03;100837.19;2066481;28;20042;-69
2022/10/26 03:06:00;;;;;;;10.43;2.90;;;;;;;12.99;88.13;100835.81;2073385;28;20065;-69
2022/10/26 03:07:05;;;;;;;9.05;3.03;;;;;;;13.01;88.31;100839.00;2062522;28;20058;-69
2022/10/26 03:08:10;;;;;;;9.48;3.42;;;;;;;13.04;88.32;100829.53;2058988;28;20487;-69
2022/10/26 03:09:17;;;;;;;7.20;2.90;;;;;;;13.02;87.86;100837.94;2067237;28;20148;-69
2022/10/26 03:10:23;;;;;;;12.43;3.00;;;;;;;13.04;87.87;100838.44;2065764;28;20066;-69
2022/10/26 03:11:28;;;;;;;8.38;2.83;;;;;;;13.01;87.76;100832.81;2083046;28;20041;-69
2022/10/26 03:12:32;;;;;;;9.80;3.00;;;;;;;12.97;87.62;100828.00;2081485;28;20049;-70
2022/10/26 03:13:40;;;;;;;12.10;2.80;;;;;;;12.98;87.65;100834.19;2074927;28;20057;-70
2022/10/26 03:14:44;;;;;;;8.30;3.22;;;;;;;12.98;87.79;100839.59;2074442;28;20045;-70
2022/10/26 03:15:59;;;;;;;6.03;2.80;;;;;;;13.01;87.42;100839.00;2074780;28;20050;-71
2022/10/26 03:17:04;;;;;;;10.85;2.65;;;;;;;13.02;87.64;100839.81;2074727;28;20037;-70
2022/10/26 03:18:12;;;;;;;5.65;2.58;;;;;;;13.01;87.35;100839.00;2074571;28;20034;-71
2022/10/26 03:19:24;;;;;;;10.43;2.72;;;;;;;12.98;87.48;100840.38;2074603;28;20042;-71
2022/10/26 03:20:30;;;;;;;8.85;3.08;;;;;;;13.01;87.25;100839.00;2058934;28;20054;-70
2022/10/26 03:21:33;;;;;;;11.98;2.97;;;;;;;13.01;87.33;100847.09;2066793;28;20398;-70
2022/10/26 03:22:42;;;;;;;12.23;2.97;;;;;;;13.01;87.46;100836.31;2074137;28;20526;-70
2022/10/26 03:23:49;;;;;;;6.40;2.72;;;;;;;13.03;87.37;100838.75;2067387;28;20057;-69
2022/10/26 03:24:57;;;;;;;12.05;2.75;;;;;;;13.00;87.13;100840.09;2066827;28;20395;-70
2022/10/26 03:26:03;;;;;;;7.85;2.72;;;;;;;12.99;87.07;100833.13;2065820;28;20053;-70
2022/10/26 03:27:06;;;;;;;7.30;2.95;;;;;;;12.99;87.04;100839.31;2073286;28;20034;-70
2022/10/26 03:28:13;;;;;;;5.68;2.97;;;;;;;12.92;86.97;100840.72;2073254;28;20034;-71
2022/10/26 03:29:21;;;;;;;10.43;2.80;;;;;;;12.93;87.08;100839.66;2073378;28;20050;-70
2022/10/26 03:30:27;;;;;;;8.00;2.90;;;;;;;12.93;87.33;100836.97;2073936;28;20470;-70
2022/10/26 03:31:29;;;;;;;9.55;3.25;;;;;;;12.91;87.25;100848.03;2074018;28;20045;-70
2022/10/26 03:32:37;;;;;;;8.82;3.05;;;;;;;12.93;87.37;100843.16;2075252;28;20046;-70
2022/10/26 03:33:46;;;;;;;7.45;2.90;;;;;;;12.95;87.31;100845.56;2072392;28;20046;-70
2022/10/26 03:34:52;;;;;;;9.63;3.20;;;;;;;12.97;87.58;100846.09;2073034;28;20560;-70
2022/10/26 03:35:59;;;;;;;18.83;3.42;;;;;;;13.00;87.34;100850.91;2073194;28;20052;-70
2022/10/26 03:37:04;;;;;;;10.88;3.47;;;;;;;13.03;87.39;100847.63;2056870;28;20047;-70
2022/10/26 03:38:09;;;;;;;13.65;3.00;;;;;;;12.96;87.00;100847.19;2065879;28;20057;-70
2022/10/26 03:39:12;;;;;;;8.63;3.00;;;;;;;12.94;87.05;100847.44;2064880;28;20054;-69
2022/10/26 03:40:22;;;;;;;10.05;2.90;;;;;;;12.91;87.16;100847.22;2057008;28;20114;-71
2022/10/26 03:41:24;;;;;;;9.75;3.55;;;;;;;12.90;87.23;100859.13;2059476;28;20040;-71
2022/10/26 03:42:36;;;;;;;10.05;2.97;;;;;;;12.88;87.27;100853.19;2064867;28;20458;-70
2022/10/26 03:43:41;;;;;;;8.93;2.85;;;;;;;12.85;87.34;100840.28;2067366;28;20050;-70
2022/10/26 03:44:50;;;;;;;9.80;2.80;;;;;;;12.89;87.50;100852.09;2067662;28;20057;-69
2022/10/26 03:45:55;;;;;;;8.13;2.80;;;;;;;12.87;87.45;100849.69;2066855;28;20069;-71
2022/10/26 03:47:05;;;;;;;9.68;3.00;;;;;;;12.83;87.23;100848.66;2073838;28;20069;-71
2022/10/26 03:48:11;;;;;;;9.35;2.90;;;;;;;12.75;87.06;100852.78;2074378;28;20037;-71
2022/10/26 03:49:16;;;;;;;9.35;2.50;;;;;;;12.75;87.32;100857.38;2072906;28;20054;-70
2022/10/26 03:50:23;;;;;;;14.68;3.10;;;;;;;12.75;87.49;100847.38;2067024;28;20042;-69
2022/10/26 03:51:31;;;;;;;8.70;3.00;;;;;;;12.78;87.57;100850.63;2073190;28;20117;-71
2022/10/26 03:52:41;;;;;;;9.80;3.45;;;;;;;12.79;87.63;100847.63;2073955;28;20506;-71
2022/10/26 03:53:47;;;;;;;10.27;2.80;;;;;;;12.82;87.70;100859.75;2074374;28;20575;-71
2022/10/26 03:54:49;;;;;;;8.60;2.60;;;;;;;12.82;87.60;100860.53;2074354;28;20482;-70
2022/10/26 03:55:56;;;;;;;15.35;2.97;;;;;;;12.82;87.55;100859.75;2066622;28;20069;-70
2022/10/26 03:57:03;;;;;;;11.98;3.00;;;;;;;12.84;87.61;100861.06;2058233;28;20399;-71
2022/10/26 03:58:09;;;;;;;8.35;2.42;;;;;;;12.85;87.66;100862.66;2067800;28;20050;-71
2022/10/26 03:59:16;;;;;;;8.23;2.90;;;;;;;12.87;87.47;100865.09;2073014;28;20034;-71
2022/10/26 04:00:21;;;;;;;6.95;2.50;;;;;;;12.88;87.26;100869.38;2057678;28;20427;-71
2022/10/26 04:01:29;;;;;;;11.93;3.22;;;;;;;12.82;87.03;100860.53;2066016;28;20051;-71
2022/10/26 04:02:36;;;;;;;9.23;2.97;;;;;;;12.83;87.24;100869.44;2072775;28;20045;-71
2022/10/26 04:03:39;;;;;;;10.43;2.72;;;;;;;12.81;87.08;100866.22;2058110;28;20062;-71
2022/10/26 04:04:45;;;;;;;5.63;2.22;;;;;;;12.76;87.04;100873.25;2049556;28;20035;-71
2022/10/26 04:05:47;;;;;;;6.93;2.60;;;;;;;12.73;87.07;100865.75;2065875;28;20050;-72
2022/10/26 04:06:50;;;;;;;9.13;2.47;;;;;;;12.71;87.03;100862.53;2064137;28;20042;-69
2022/10/26 04:07:58;;;;;;;10.43;2.75;;;;;;;12.73;87.33;100864.94;2040649;28;20054;-71
2022/10/26 04:09:02;;;;;;;10.38;2.80;;;;;;;12.76;87.38;100864.38;2051857;28;20050;-71
2022/10/26 04:10:09;;;;;;;10.82;2.50;;;;;;;12.77;87.39;100866.00;2063666;28;20048;-70
2022/10/26 04:11:14;;;;;;;5.68;2.30;;;;;;;12.78;87.29;100866.81;2065950;28;20065;-70
2022/10/26 04:12:20;;;;;;;9.07;3.20;;;;;;;12.78;87.37;100867.59;2079209;28;20049;-70
2022/10/26 04:13:25;;;;;;;5.13;2.50;;;;;;;12.81;87.31;100868.94;2082138;28;20057;-71
2022/10/26 04:14:30;;;;;;;7.40;2.83;;;;;;;12.79;87.25;100868.41;2074255;28;20038;-70
2022/10/26 04:15:36;;;;;;;8.82;2.10;;;;;;;12.76;87.28;100862.47;2080400;28;20045;-70
2022/10/26 04:16:49;;;;;;;12.40;2.58;;;;;;;12.80;87.36;100870.00;2081728;28;20052;-69
2022/10/26 04:18:04;;;;;;;7.85;2.60;;;;;;;12.81;87.18;100868.94;2068833;28;20045;-71
2022/10/26 04:19:10;;;;;;;8.98;2.45;;;;;;;12.80;87.23;100867.31;2075925;28;20494;-70
2022/10/26 04:20:16;;;;;;;6.90;2.92;;;;;;;12.80;86.99;100859.22;2073016;28;20041;-70
2022/10/26 04:21:19;;;;;;;6.35;2.50;;;;;;;12.82;87.08;100862.44;2074292;28;20125;-71
2022/10/26 04:22:26;;;;;;;6.80;2.60;;;;;;;12.83;87.10;100858.63;2072701;28;20050;-70
2022/10/26 04:23:29;;;;;;;8.73;2.47;;;;;;;12.84;86.89;100861.06;2073672;28;20046;-71
2022/10/26 04:24:35;;;;;;;7.82;2.42;;;;;;;12.84;86.70;100854.88;2066473;28;20038;-70
2022/10/26 04:25:38;;;;;;;7.05;2.42;;;;;;;12.83;86.73;100858.63;2058561;28;20061;-70
2022/10/26 04:26:45;;;;;;;9.73;2.58;;;;;;;12.80;86.60;100854.63;2066026;28;20109;-70
2022/10/26 04:27:51;;;;;;;6.63;2.45;;;;;;;12.76;86.69;100848.97;2064739;28;20605;-70
2022/10/26 04:28:59;;;;;;;6.30;2.40;;;;;;;12.72;86.29;100853.34;2058341;28;20046;-71
2022/10/26 04:30:08;;;;;;;10.30;2.83;;;;;;;12.70;86.38;100850.16;2058196;28;20069;-73
2022/10/26 04:31:13;;;;;;;8.52;2.90;;;;;;;12.67;86.49;100849.91;2066706;28;20058;-71
2022/10/26 04:32:18;;;;;;;6.15;2.08;;;;;;;12.64;86.25;100845.91;2070816;28;20050;-71
2022/10/26 04:33:23;;;;;;;8.85;2.45;;;;;;;12.61;86.35;100851.88;2065278;28;20071;-70
2022/10/26 04:34:35;;;;;;;6.78;2.28;;;;;;;12.56;86.16;100849.19;2073230;28;20050;-70
2022/10/26 04:35:41;;;;;;;9.93;2.38;;;;;;;12.54;86.47;100854.06;2056648;28;20038;-71
2022/10/26 04:36:47;;;;;;;6.43;2.65;;;;;;;12.49;86.15;100851.44;2058881;28;20132;-70
2022/10/26 04:38:04;;;;;;;7.70;2.47;;;;;;;12.43;86.39;100860.66;2079082;28;20042;-71
2022/10/26 04:39:09;;;;;;;10.23;2.30;;;;;;;12.39;86.69;100859.59;2072809;28;20037;-70
2022/10/26 04:40:15;;;;;;;9.23;2.72;;;;;;;12.31;86.63;100855.63;2066720;28;20521;-71
2022/10/26 04:41:21;;;;;;;10.13;2.40;;;;;;;12.28;86.56;100856.19;2066400;28;20046;-70
2022/10/26 04:42:26;;;;;;;8.15;2.50;;;;;;;12.26;87.06;100859.19;2076413;28;20060;-70
2022/10/26 04:43:29;;;;;;;11.32;2.65;;;;;;;12.23;87.01;100872.41;2081968;28;20060;-70
2022/10/26 04:44:38;;;;;;;7.28;2.67;;;;;;;12.22;87.14;100870.78;2081973;28;20038;-70
2022/10/26 04:45:46;;;;;;;8.43;2.40;;;;;;;12.21;87.55;100869.19;2073315;28;20108;-70
2022/10/26 04:46:54;;;;;;;14.23;3.17;;;;;;;12.18;87.54;100870.56;2067691;28;20407;-72
2022/10/26 04:48:11;;;;;;;10.45;2.47;;;;;;;12.15;87.66;100876.50;2080673;28;20064;-69
2022/10/26 04:49:17;;;;;;;8.82;2.75;;;;;;;12.15;87.69;100878.41;2073720;28;20045;-71
2022/10/26 04:50:19;;;;;;;10.80;3.03;;;;;;;12.12;87.65;100877.06;2058996;28;20394;-70
2022/10/26 04:51:26;;;;;;;8.48;2.70;;;;;;;12.11;87.94;100878.16;2057912;28;20491;-72
2022/10/26 04:52:36;;;;;;;11.57;2.80;;;;;;;12.08;88.05;100884.13;2064803;28;20054;-70
2022/10/26 04:53:42;;;;;;;7.35;2.55;;;;;;;12.09;88.15;100877.63;2066785;28;20046;-70
2022/10/26 04:54:47;;;;;;;9.68;2.92;;;;;;;12.06;88.07;100873.59;2072530;28;20033;-70
2022/10/26 04:56:00;;;;;;;10.82;2.85;;;;;;;12.04;88.32;100878.47;2072001;28;20046;-70
2022/10/26 04:57:08;;;;;;;10.38;2.95;;;;;;;12.04;88.24;100870.41;2072051;28;20393;-71
2022/10/26 04:58:11;;;;;;;10.82;2.80;;;;;;;12.03;88.44;100876.06;2072073;28;20053;-70
2022/10/26 04:59:20;;;;;;;9.15;3.63;;;;;;;12.03;88.62;100876.84;2073396;28;20061;-70
2022/10/26 05:00:23;;;;;;;13.15;2.83;;;;;;;12.01;88.69;100876.34;2073511;28;20470;-69
2022/10/26 05:01:30;;;;;;;8.13;3.28;;;;;;;11.99;88.34;100875.81;2073275;28;20053;-70
2022/10/26 05:02:34;;;;;;;8.05;3.35;;;;;;;11.99;88.78;100872.31;2073176;28;20049;-70
2022/10/26 05:03:37;;;;;;;10.40;2.92;;;;;;;11.99;88.78;100872.31;2071943;28;20049;-70
2022/10/26 05:04:48;;;;;;;6.38;2.95;;;;;;;11.96;88.64;100875.56;2079885;28;20049;-70
2022/10/26 05:05:51;;;;;;;8.65;3.15;;;;;;;11.93;88.71;100878.81;2075175;28;20050;-70
2022/10/26 05:06:59;;;;;;;8.35;2.83;;;;;;;11.92;88.87;100877.22;2057863;28;20050;-70
2022/10/26 05:08:12;;;;;;;13.50;2.95;;;;;;;11.89;88.79;100872.38;2058187;28;20062;-71
2022/10/26 05:09:19;;;;;;;14.65;3.38;;;;;;;11.87;88.97;100880.75;2066298;28;20501;-70
2022/10/26 05:10:24;;;;;;;10.93;3.08;;;;;;;11.82;88.85;100884.25;2076455;28;20053;-70
2022/10/26 05:11:29;;;;;;;8.68;3.42;;;;;;;11.82;89.20;100873.47;2069991;28;20061;-70
2022/10/26 05:12:35;;;;;;;12.18;3.13;;;;;;;11.82;89.32;100881.56;2072607;28;20045;-70
2022/10/26 05:13:40;;;;;;;10.02;3.10;;;;;;;11.85;89.59;100872.13;2079693;28;20052;-69
2022/10/26 05:14:45;;;;;;;10.02;2.97;;;;;;;11.86;89.76;100881.84;2080193;28;20596;-70
2022/10/26 05:15:54;;;;;;;15.27;3.10;;;;;;;11.92;89.59;100882.63;2069721;28;20157;-70
2022/10/26 05:17:03;;;;;;;17.83;4.00;;;;;;;11.92;89.56;100878.03;2065885;28;20039;-70
2022/10/26 05:18:08;;;;;;;12.70;3.50;;;;;;;11.93;89.35;100881.53;2072239;28;20034;-70
2022/10/26 05:19:11;;;;;;;12.40;3.28;;;;;;;11.93;89.39;100881.53;2054328;28;20043;-69
2022/10/26 05:20:14;;;;;;;7.80;3.35;;;;;;;11.93;89.56;100876.94;2055827;28;20034;-69
2022/10/26 05:21:18;;;;;;;8.40;3.13;;;;;;;11.94;89.22;100881.22;2053455;28;20039;-75
2022/10/26 05:22:29;;;;;;;11.38;3.33;;;;;;;11.92;89.31;100885.31;2063393;28;20057;-69
2022/10/26 05:23:34;;;;;;;8.45;2.97;;;;;;;11.91;89.21;100879.09;2069998;28;20044;-68
2022/10/26 05:24:39;;;;;;;10.93;3.60;;;;;;;11.88;89.32;100876.94;2054897;28;20038;-70